sensor_id;sensor_type;location;lat;lon;timestamp;P1;durP1;ratioP1;P2;durP2;ratioP2
55290;SDS011;41155;39.768;2.712;2023-12-20T00:01:40;42.50;;;37.90;;
55290;SDS011;41155;39.768;2.712;2023-12-20T00:04:05;46.25;;;37.97;;
55290;SDS011;41155;39.768;2.712;2023-12-20T00:06:31;49.55;;;39.72;;
55290;SDS011;41155;39.768;2.712;2023-12-20T00:08:57;49.15;;;39.67;;
55290;SDS011;41155;39.768;2.712;2023-12-20T00:11:25;47.80;;;36.60;;
55290;SDS011;41155;39.768;2.712;2023-12-20T00:13:51;48.60;;;38.63;;
55290;SDS011;41155;39.768;2.712;2023-12-20T00:16:17;48.22;;;38.67;;
55290;SDS011;41155;39.768;2.712;2023-12-20T00:18:43;39.35;;;34.17;;
55290;SDS011;41155;39.768;2.712;2023-12-20T00:21:08;47.45;;;36.20;;
55290;SDS011;41155;39.768;2.712;2023-12-20T00:23:34;44.33;;;36.03;;
55290;SDS011;41155;39.768;2.712;2023-12-20T00:25:59;41.67;;;37.03;;
55290;SDS011;41155;39.768;2.712;2023-12-20T00:28:25;43.42;;;33.70;;
55290;SDS011;41155;39.768;2.712;2023-12-20T00:30:50;48.03;;;35.28;;
55290;SDS011;41155;39.768;2.712;2023-12-20T00:33:16;42.80;;;36.78;;
55290;SDS011;41155;39.768;2.712;2023-12-20T00:35:41;46.97;;;36.33;;
55290;SDS011;41155;39.768;2.712;2023-12-20T00:38:07;41.25;;;36.10;;
55290;SDS011;41155;39.768;2.712;2023-12-20T00:40:33;39.38;;;33.72;;
55290;SDS011;41155;39.768;2.712;2023-12-20T00:42:59;35.70;;;31.50;;
55290;SDS011;41155;39.768;2.712;2023-12-20T00:45:24;37.47;;;33.65;;
55290;SDS011;41155;39.768;2.712;2023-12-20T00:47:50;42.92;;;37.90;;
55290;SDS011;41155;39.768;2.712;2023-12-20T00:50:16;41.10;;;33.15;;
55290;SDS011;41155;39.768;2.712;2023-12-20T00:52:41;41.63;;;35.72;;
55290;SDS011;41155;39.768;2.712;2023-12-20T00:55:07;36.47;;;32.53;;
55290;SDS011;41155;39.768;2.712;2023-12-20T00:57:32;46.55;;;34.08;;
55290;SDS011;41155;39.768;2.712;2023-12-20T00:59:58;38.60;;;34.50;;
55290;SDS011;41155;39.768;2.712;2023-12-20T01:02:24;43.15;;;36.45;;
55290;SDS011;41155;39.768;2.712;2023-12-20T01:04:49;42.55;;;37.25;;
55290;SDS011;41155;39.768;2.712;2023-12-20T01:07:14;47.70;;;39.72;;
55290;SDS011;41155;39.768;2.712;2023-12-20T01:09:40;49.42;;;40.42;;
55290;SDS011;41155;39.768;2.712;2023-12-20T01:12:05;42.15;;;37.40;;
55290;SDS011;41155;39.768;2.712;2023-12-20T01:14:31;39.05;;;33.35;;
55290;SDS011;41155;39.768;2.712;2023-12-20T01:16:56;29.25;;;26.35;;
55290;SDS011;41155;39.768;2.712;2023-12-20T01:19:22;32.05;;;26.67;;
55290;SDS011;41155;39.768;2.712;2023-12-20T01:21:49;29.85;;;26.92;;
55290;SDS011;41155;39.768;2.712;2023-12-20T01:24:14;31.45;;;28.25;;
55290;SDS011;41155;39.768;2.712;2023-12-20T01:26:40;35.00;;;28.95;;
55290;SDS011;41155;39.768;2.712;2023-12-20T01:29:05;34.35;;;30.25;;
55290;SDS011;41155;39.768;2.712;2023-12-20T01:31:30;31.38;;;28.15;;
55290;SDS011;41155;39.768;2.712;2023-12-20T01:33:56;34.58;;;30.58;;
55290;SDS011;41155;39.768;2.712;2023-12-20T01:36:21;30.85;;;27.60;;
55290;SDS011;41155;39.768;2.712;2023-12-20T01:38:47;31.95;;;26.58;;
55290;SDS011;41155;39.768;2.712;2023-12-20T01:41:12;30.13;;;26.65;;
55290;SDS011;41155;39.768;2.712;2023-12-20T01:43:38;29.13;;;26.10;;
55290;SDS011;41155;39.768;2.712;2023-12-20T01:46:03;27.92;;;24.67;;
55290;SDS011;41155;39.768;2.712;2023-12-20T01:48:29;36.90;;;32.03;;
55290;SDS011;41155;39.768;2.712;2023-12-20T01:50:57;30.50;;;27.02;;
55290;SDS011;41155;39.768;2.712;2023-12-20T01:53:25;28.52;;;25.73;;
55290;SDS011;41155;39.768;2.712;2023-12-20T01:55:54;35.30;;;27.35;;
55290;SDS011;41155;39.768;2.712;2023-12-20T01:58:21;30.20;;;27.17;;
55290;SDS011;41155;39.768;2.712;2023-12-20T02:00:48;30.77;;;26.05;;
55290;SDS011;41155;39.768;2.712;2023-12-20T02:03:13;31.13;;;26.92;;
55290;SDS011;41155;39.768;2.712;2023-12-20T02:05:39;30.98;;;26.27;;
55290;SDS011;41155;39.768;2.712;2023-12-20T02:08:05;31.58;;;28.17;;
55290;SDS011;41155;39.768;2.712;2023-12-20T02:10:31;30.40;;;27.25;;
55290;SDS011;41155;39.768;2.712;2023-12-20T02:12:57;32.83;;;27.05;;
55290;SDS011;41155;39.768;2.712;2023-12-20T02:15:22;28.52;;;25.73;;
55290;SDS011;41155;39.768;2.712;2023-12-20T02:17:48;30.55;;;27.33;;
55290;SDS011;41155;39.768;2.712;2023-12-20T02:20:14;39.05;;;34.67;;
55290;SDS011;41155;39.768;2.712;2023-12-20T02:22:40;34.85;;;30.38;;
55290;SDS011;41155;39.768;2.712;2023-12-20T02:25:06;32.25;;;28.83;;
55290;SDS011;41155;39.768;2.712;2023-12-20T02:27:31;30.75;;;25.48;;
55290;SDS011;41155;39.768;2.712;2023-12-20T02:29:57;28.40;;;25.50;;
55290;SDS011;41155;39.768;2.712;2023-12-20T02:32:22;27.65;;;24.70;;
55290;SDS011;41155;39.768;2.712;2023-12-20T02:34:51;27.35;;;24.42;;
55290;SDS011;41155;39.768;2.712;2023-12-20T02:37:16;26.67;;;23.88;;
55290;SDS011;41155;39.768;2.712;2023-12-20T02:39:42;25.45;;;22.75;;
55290;SDS011;41155;39.768;2.712;2023-12-20T02:42:08;32.00;;;28.60;;
55290;SDS011;41155;39.768;2.712;2023-12-20T02:44:33;25.80;;;23.00;;
55290;SDS011;41155;39.768;2.712;2023-12-20T02:46:59;28.17;;;25.23;;
55290;SDS011;41155;39.768;2.712;2023-12-20T02:49:24;28.25;;;25.45;;
55290;SDS011;41155;39.768;2.712;2023-12-20T02:51:50;29.40;;;26.15;;
55290;SDS011;41155;39.768;2.712;2023-12-20T02:54:15;28.42;;;25.70;;
55290;SDS011;41155;39.768;2.712;2023-12-20T02:56:41;26.05;;;23.13;;
55290;SDS011;41155;39.768;2.712;2023-12-20T02:59:06;23.98;;;21.52;;
55290;SDS011;41155;39.768;2.712;2023-12-20T03:01:33;22.67;;;20.38;;
55290;SDS011;41155;39.768;2.712;2023-12-20T03:03:59;24.38;;;21.77;;
55290;SDS011;41155;39.768;2.712;2023-12-20T03:06:25;26.85;;;24.15;;
55290;SDS011;41155;39.768;2.712;2023-12-20T03:08:50;28.25;;;25.35;;
55290;SDS011;41155;39.768;2.712;2023-12-20T03:11:16;26.38;;;22.58;;
55290;SDS011;41155;39.768;2.712;2023-12-20T03:13:41;25.27;;;22.63;;
55290;SDS011;41155;39.768;2.712;2023-12-20T03:16:10;29.08;;;26.02;;
55290;SDS011;41155;39.768;2.712;2023-12-20T03:18:37;28.55;;;23.40;;
55290;SDS011;41155;39.768;2.712;2023-12-20T03:21:03;33.85;;;26.88;;
55290;SDS011;41155;39.768;2.712;2023-12-20T03:23:29;26.63;;;23.80;;
55290;SDS011;41155;39.768;2.712;2023-12-20T03:25:55;25.80;;;21.38;;
55290;SDS011;41155;39.768;2.712;2023-12-20T03:28:21;23.85;;;21.45;;
55290;SDS011;41155;39.768;2.712;2023-12-20T03:30:48;22.25;;;19.98;;
55290;SDS011;41155;39.768;2.712;2023-12-20T03:33:13;22.65;;;20.02;;
55290;SDS011;41155;39.768;2.712;2023-12-20T03:35:39;23.02;;;20.55;;
55290;SDS011;41155;39.768;2.712;2023-12-20T03:38:04;20.98;;;19.17;;
55290;SDS011;41155;39.768;2.712;2023-12-20T03:40:30;20.98;;;19.05;;
55290;SDS011;41155;39.768;2.712;2023-12-20T03:42:55;22.33;;;19.92;;
55290;SDS011;41155;39.768;2.712;2023-12-20T03:45:21;23.77;;;21.48;;
55290;SDS011;41155;39.768;2.712;2023-12-20T03:47:46;23.40;;;21.35;;
55290;SDS011;41155;39.768;2.712;2023-12-20T03:50:12;26.27;;;23.52;;
55290;SDS011;41155;39.768;2.712;2023-12-20T03:52:38;25.58;;;22.23;;
55290;SDS011;41155;39.768;2.712;2023-12-20T03:55:03;23.73;;;21.33;;
55290;SDS011;41155;39.768;2.712;2023-12-20T03:57:32;22.13;;;20.05;;
55290;SDS011;41155;39.768;2.712;2023-12-20T03:59:58;21.45;;;19.23;;
55290;SDS011;41155;39.768;2.712;2023-12-20T04:02:24;20.98;;;18.98;;
55290;SDS011;41155;39.768;2.712;2023-12-20T04:04:49;23.02;;;20.65;;
55290;SDS011;41155;39.768;2.712;2023-12-20T04:07:16;21.65;;;19.45;;
55290;SDS011;41155;39.768;2.712;2023-12-20T04:09:42;21.50;;;19.48;;
55290;SDS011;41155;39.768;2.712;2023-12-20T04:12:07;20.23;;;18.35;;
55290;SDS011;41155;39.768;2.712;2023-12-20T04:14:33;22.52;;;20.23;;
55290;SDS011;41155;39.768;2.712;2023-12-20T04:16:58;21.80;;;19.17;;
55290;SDS011;41155;39.768;2.712;2023-12-20T04:19:24;20.63;;;18.73;;
55290;SDS011;41155;39.768;2.712;2023-12-20T04:21:49;22.27;;;20.02;;
55290;SDS011;41155;39.768;2.712;2023-12-20T04:24:15;23.25;;;20.80;;
55290;SDS011;41155;39.768;2.712;2023-12-20T04:26:40;23.33;;;21.08;;
55290;SDS011;41155;39.768;2.712;2023-12-20T04:29:06;21.40;;;19.30;;
55290;SDS011;41155;39.768;2.712;2023-12-20T04:31:31;20.58;;;18.25;;
55290;SDS011;41155;39.768;2.712;2023-12-20T04:33:57;19.55;;;17.75;;
55290;SDS011;41155;39.768;2.712;2023-12-20T04:36:22;18.48;;;16.58;;
55290;SDS011;41155;39.768;2.712;2023-12-20T04:38:50;20.13;;;17.15;;
55290;SDS011;41155;39.768;2.712;2023-12-20T04:41:15;18.77;;;16.73;;
55290;SDS011;41155;39.768;2.712;2023-12-20T04:43:41;18.15;;;16.30;;
55290;SDS011;41155;39.768;2.712;2023-12-20T04:46:06;16.13;;;14.82;;
55290;SDS011;41155;39.768;2.712;2023-12-20T04:48:32;20.40;;;18.30;;
55290;SDS011;41155;39.768;2.712;2023-12-20T04:50:58;21.73;;;19.48;;
55290;SDS011;41155;39.768;2.712;2023-12-20T04:53:23;21.00;;;19.05;;
55290;SDS011;41155;39.768;2.712;2023-12-20T04:55:52;21.88;;;16.52;;
55290;SDS011;41155;39.768;2.712;2023-12-20T04:58:17;18.80;;;16.30;;
55290;SDS011;41155;39.768;2.712;2023-12-20T05:00:43;20.75;;;18.95;;
55290;SDS011;41155;39.768;2.712;2023-12-20T05:03:08;28.88;;;22.27;;
55290;SDS011;41155;39.768;2.712;2023-12-20T05:05:34;24.10;;;21.38;;
55290;SDS011;41155;39.768;2.712;2023-12-20T05:08:01;19.48;;;17.67;;
55290;SDS011;41155;39.768;2.712;2023-12-20T05:10:26;20.15;;;18.05;;
55290;SDS011;41155;39.768;2.712;2023-12-20T05:12:53;22.23;;;18.27;;
55290;SDS011;41155;39.768;2.712;2023-12-20T05:15:18;18.95;;;17.08;;
55290;SDS011;41155;39.768;2.712;2023-12-20T05:17:44;18.85;;;16.85;;
55290;SDS011;41155;39.768;2.712;2023-12-20T05:20:09;25.98;;;21.30;;
55290;SDS011;41155;39.768;2.712;2023-12-20T05:22:35;20.40;;;18.40;;
55290;SDS011;41155;39.768;2.712;2023-12-20T05:25:01;21.17;;;18.92;;
55290;SDS011;41155;39.768;2.712;2023-12-20T05:27:26;18.65;;;16.88;;
55290;SDS011;41155;39.768;2.712;2023-12-20T05:29:52;18.98;;;16.95;;
55290;SDS011;41155;39.768;2.712;2023-12-20T05:32:17;19.42;;;17.70;;
55290;SDS011;41155;39.768;2.712;2023-12-20T05:34:43;18.75;;;16.85;;
55290;SDS011;41155;39.768;2.712;2023-12-20T05:37:08;32.83;;;24.63;;
55290;SDS011;41155;39.768;2.712;2023-12-20T05:39:34;37.95;;;30.67;;
55290;SDS011;41155;39.768;2.712;2023-12-20T05:41:59;44.90;;;33.63;;
55290;SDS011;41155;39.768;2.712;2023-12-20T05:44:25;37.70;;;28.05;;
55290;SDS011;41155;39.768;2.712;2023-12-20T05:46:50;22.25;;;20.13;;
55290;SDS011;41155;39.768;2.712;2023-12-20T05:49:16;30.45;;;25.05;;
55290;SDS011;41155;39.768;2.712;2023-12-20T05:51:41;30.98;;;24.55;;
55290;SDS011;41155;39.768;2.712;2023-12-20T05:54:09;22.95;;;20.58;;
55290;SDS011;41155;39.768;2.712;2023-12-20T05:56:34;21.67;;;19.48;;
55290;SDS011;41155;39.768;2.712;2023-12-20T05:59:00;48.38;;;36.80;;
55290;SDS011;41155;39.768;2.712;2023-12-20T06:01:25;30.17;;;24.83;;
55290;SDS011;41155;39.768;2.712;2023-12-20T06:03:50;36.20;;;28.70;;
55290;SDS011;41155;39.768;2.712;2023-12-20T06:06:16;43.22;;;33.05;;
55290;SDS011;41155;39.768;2.712;2023-12-20T06:08:45;44.83;;;33.35;;
55290;SDS011;41155;39.768;2.712;2023-12-20T06:11:11;34.05;;;30.27;;
55290;SDS011;41155;39.768;2.712;2023-12-20T06:13:36;42.28;;;26.88;;
55290;SDS011;41155;39.768;2.712;2023-12-20T06:16:03;31.65;;;25.65;;
55290;SDS011;41155;39.768;2.712;2023-12-20T06:18:30;47.58;;;35.22;;
55290;SDS011;41155;39.768;2.712;2023-12-20T06:20:55;54.30;;;40.83;;
55290;SDS011;41155;39.768;2.712;2023-12-20T06:23:21;34.13;;;30.48;;
55290;SDS011;41155;39.768;2.712;2023-12-20T06:25:46;37.40;;;27.48;;
55290;SDS011;41155;39.768;2.712;2023-12-20T06:28:12;49.70;;;30.83;;
55290;SDS011;41155;39.768;2.712;2023-12-20T06:30:40;52.75;;;34.22;;
55290;SDS011;41155;39.768;2.712;2023-12-20T06:33:05;54.33;;;35.90;;
55290;SDS011;41155;39.768;2.712;2023-12-20T06:35:31;41.17;;;28.90;;
55290;SDS011;41155;39.768;2.712;2023-12-20T06:37:57;47.10;;;31.48;;
55290;SDS011;41155;39.768;2.712;2023-12-20T06:40:22;58.10;;;40.58;;
55290;SDS011;41155;39.768;2.712;2023-12-20T06:42:48;55.00;;;36.55;;
55290;SDS011;41155;39.768;2.712;2023-12-20T06:45:13;39.88;;;29.27;;
55290;SDS011;41155;39.768;2.712;2023-12-20T06:47:39;47.63;;;30.23;;
55290;SDS011;41155;39.768;2.712;2023-12-20T06:50:05;36.97;;;27.35;;
55290;SDS011;41155;39.768;2.712;2023-12-20T06:52:30;32.72;;;25.90;;
55290;SDS011;41155;39.768;2.712;2023-12-20T06:54:56;37.05;;;27.48;;
55290;SDS011;41155;39.768;2.712;2023-12-20T06:57:21;38.42;;;28.33;;
55290;SDS011;41155;39.768;2.712;2023-12-20T06:59:47;33.47;;;28.70;;
55290;SDS011;41155;39.768;2.712;2023-12-20T07:02:12;40.35;;;30.90;;
55290;SDS011;41155;39.768;2.712;2023-12-20T07:04:41;42.97;;;34.17;;
55290;SDS011;41155;39.768;2.712;2023-12-20T07:07:07;53.95;;;30.30;;
55290;SDS011;41155;39.768;2.712;2023-12-20T07:09:32;44.17;;;32.03;;
55290;SDS011;41155;39.768;2.712;2023-12-20T07:11:58;43.50;;;31.73;;
55290;SDS011;41155;39.768;2.712;2023-12-20T07:14:23;73.07;;;45.90;;
55290;SDS011;41155;39.768;2.712;2023-12-20T07:16:49;74.72;;;50.53;;
55290;SDS011;41155;39.768;2.712;2023-12-20T07:19:14;66.90;;;37.88;;
55290;SDS011;41155;39.768;2.712;2023-12-20T07:21:40;56.70;;;37.72;;
55290;SDS011;41155;39.768;2.712;2023-12-20T07:24:05;66.57;;;43.72;;
55290;SDS011;41155;39.768;2.712;2023-12-20T07:26:31;62.10;;;37.50;;
55290;SDS011;41155;39.768;2.712;2023-12-20T07:28:56;97.70;;;40.72;;
55290;SDS011;41155;39.768;2.712;2023-12-20T07:31:23;81.35;;;38.30;;
55290;SDS011;41155;39.768;2.712;2023-12-20T07:33:49;70.25;;;39.55;;
55290;SDS011;41155;39.768;2.712;2023-12-20T07:36:14;77.78;;;33.42;;
55290;SDS011;41155;39.768;2.712;2023-12-20T07:38:40;69.70;;;35.08;;
55290;SDS011;41155;39.768;2.712;2023-12-20T07:41:09;74.55;;;31.50;;
55290;SDS011;41155;39.768;2.712;2023-12-20T07:43:35;73.03;;;31.65;;
55290;SDS011;41155;39.768;2.712;2023-12-20T07:46:09;77.93;;;33.22;;
55290;SDS011;41155;39.768;2.712;2023-12-20T07:48:34;70.28;;;36.28;;
55290;SDS011;41155;39.768;2.712;2023-12-20T07:51:01;73.35;;;35.97;;
55290;SDS011;41155;39.768;2.712;2023-12-20T07:53:27;76.28;;;44.25;;
55290;SDS011;41155;39.768;2.712;2023-12-20T07:55:53;73.28;;;49.35;;
55290;SDS011;41155;39.768;2.712;2023-12-20T07:58:18;76.00;;;38.67;;
55290;SDS011;41155;39.768;2.712;2023-12-20T08:00:44;77.40;;;43.17;;
55290;SDS011;41155;39.768;2.712;2023-12-20T08:03:09;114.05;;;48.38;;
55290;SDS011;41155;39.768;2.712;2023-12-20T08:05:35;103.78;;;49.67;;
55290;SDS011;41155;39.768;2.712;2023-12-20T08:08:01;168.35;;;61.55;;
55290;SDS011;41155;39.768;2.712;2023-12-20T08:10:26;107.80;;;59.38;;
55290;SDS011;41155;39.768;2.712;2023-12-20T08:12:54;118.05;;;61.13;;
55290;SDS011;41155;39.768;2.712;2023-12-20T08:15:20;104.20;;;50.92;;
55290;SDS011;41155;39.768;2.712;2023-12-20T08:17:45;73.63;;;50.15;;
55290;SDS011;41155;39.768;2.712;2023-12-20T08:20:11;79.03;;;47.30;;
55290;SDS011;41155;39.768;2.712;2023-12-20T08:22:36;82.63;;;55.25;;
55290;SDS011;41155;39.768;2.712;2023-12-20T08:25:02;77.20;;;52.25;;
55290;SDS011;41155;39.768;2.712;2023-12-20T08:27:28;89.90;;;54.30;;
55290;SDS011;41155;39.768;2.712;2023-12-20T08:29:53;101.07;;;62.00;;
55290;SDS011;41155;39.768;2.712;2023-12-20T08:32:18;132.70;;;78.30;;
55290;SDS011;41155;39.768;2.712;2023-12-20T08:34:44;136.30;;;82.78;;
55290;SDS011;41155;39.768;2.712;2023-12-20T08:37:09;162.35;;;93.55;;
55290;SDS011;41155;39.768;2.712;2023-12-20T08:39:35;137.70;;;81.57;;
55290;SDS011;41155;39.768;2.712;2023-12-20T08:42:01;115.45;;;59.72;;
55290;SDS011;41155;39.768;2.712;2023-12-20T08:44:26;121.75;;;68.40;;
55290;SDS011;41155;39.768;2.712;2023-12-20T08:46:52;119.72;;;75.32;;
55290;SDS011;41155;39.768;2.712;2023-12-20T08:49:17;135.93;;;73.82;;
55290;SDS011;41155;39.768;2.712;2023-12-20T08:51:43;135.68;;;71.63;;
55290;SDS011;41155;39.768;2.712;2023-12-20T08:54:08;130.48;;;70.82;;
55290;SDS011;41155;39.768;2.712;2023-12-20T08:56:35;122.05;;;69.90;;
55290;SDS011;41155;39.768;2.712;2023-12-20T08:59:00;99.45;;;67.00;;
55290;SDS011;41155;39.768;2.712;2023-12-20T09:01:26;126.32;;;70.13;;
55290;SDS011;41155;39.768;2.712;2023-12-20T09:03:54;137.60;;;75.55;;
55290;SDS011;41155;39.768;2.712;2023-12-20T09:06:19;137.95;;;74.25;;
55290;SDS011;41155;39.768;2.712;2023-12-20T09:08:45;142.63;;;77.00;;
55290;SDS011;41155;39.768;2.712;2023-12-20T09:11:10;128.13;;;74.15;;
55290;SDS011;41155;39.768;2.712;2023-12-20T09:13:36;115.57;;;71.72;;
55290;SDS011;41155;39.768;2.712;2023-12-20T09:16:02;127.88;;;71.82;;
55290;SDS011;41155;39.768;2.712;2023-12-20T09:18:28;119.80;;;62.83;;
55290;SDS011;41155;39.768;2.712;2023-12-20T09:20:54;129.13;;;63.60;;
55290;SDS011;41155;39.768;2.712;2023-12-20T09:23:20;164.40;;;85.70;;
55290;SDS011;41155;39.768;2.712;2023-12-20T09:25:45;171.95;;;86.13;;
55290;SDS011;41155;39.768;2.712;2023-12-20T09:28:11;156.45;;;72.55;;
55290;SDS011;41155;39.768;2.712;2023-12-20T09:30:36;126.28;;;60.95;;
55290;SDS011;41155;39.768;2.712;2023-12-20T09:33:04;109.50;;;54.22;;
55290;SDS011;41155;39.768;2.712;2023-12-20T09:35:32;66.88;;;39.53;;
55290;SDS011;41155;39.768;2.712;2023-12-20T09:37:57;30.65;;;18.60;;
55290;SDS011;41155;39.768;2.712;2023-12-20T09:40:22;88.35;;;36.25;;
55290;SDS011;41155;39.768;2.712;2023-12-20T09:42:59;85.70;;;47.40;;
55290;SDS011;41155;39.768;2.712;2023-12-20T09:45:29;101.97;;;49.13;;
55290;SDS011;41155;39.768;2.712;2023-12-20T09:47:56;78.53;;;48.78;;
55290;SDS011;41155;39.768;2.712;2023-12-20T09:50:23;59.75;;;26.30;;
55290;SDS011;41155;39.768;2.712;2023-12-20T09:52:49;17.10;;;13.13;;
55290;SDS011;41155;39.768;2.712;2023-12-20T09:55:19;21.95;;;13.50;;
55290;SDS011;41155;39.768;2.712;2023-12-20T09:57:46;22.52;;;13.23;;
55290;SDS011;41155;39.768;2.712;2023-12-20T10:00:12;30.02;;;21.38;;
55290;SDS011;41155;39.768;2.712;2023-12-20T10:02:40;40.30;;;22.98;;
55290;SDS011;41155;39.768;2.712;2023-12-20T10:05:12;51.15;;;28.05;;
55290;SDS011;41155;39.768;2.712;2023-12-20T10:07:44;61.33;;;31.95;;
55290;SDS011;41155;39.768;2.712;2023-12-20T10:10:09;54.45;;;30.67;;
55290;SDS011;41155;39.768;2.712;2023-12-20T10:12:37;57.38;;;33.10;;
55290;SDS011;41155;39.768;2.712;2023-12-20T10:15:03;50.88;;;31.88;;
55290;SDS011;41155;39.768;2.712;2023-12-20T10:17:29;43.05;;;26.75;;
55290;SDS011;41155;39.768;2.712;2023-12-20T10:19:55;49.28;;;25.85;;
55290;SDS011;41155;39.768;2.712;2023-12-20T10:22:21;64.47;;;27.10;;
55290;SDS011;41155;39.768;2.712;2023-12-20T10:24:47;55.10;;;28.35;;
55290;SDS011;41155;39.768;2.712;2023-12-20T10:27:12;48.50;;;31.17;;
55290;SDS011;41155;39.768;2.712;2023-12-20T10:29:38;57.75;;;31.98;;
55290;SDS011;41155;39.768;2.712;2023-12-20T10:34:49;50.22;;;30.00;;
55290;SDS011;41155;39.768;2.712;2023-12-20T10:37:14;73.93;;;30.73;;
55290;SDS011;41155;39.768;2.712;2023-12-20T10:39:40;68.20;;;29.25;;
55290;SDS011;41155;39.768;2.712;2023-12-20T10:42:08;71.40;;;34.03;;
55290;SDS011;41155;39.768;2.712;2023-12-20T10:44:36;46.65;;;31.40;;
55290;SDS011;41155;39.768;2.712;2023-12-20T10:47:02;63.83;;;35.70;;
55290;SDS011;41155;39.768;2.712;2023-12-20T10:49:29;61.10;;;34.08;;
55290;SDS011;41155;39.768;2.712;2023-12-20T10:51:55;36.97;;;23.30;;
55290;SDS011;41155;39.768;2.712;2023-12-20T10:54:24;44.58;;;22.20;;
55290;SDS011;41155;39.768;2.712;2023-12-20T10:56:53;40.97;;;24.23;;
55290;SDS011;41155;39.768;2.712;2023-12-20T10:59:19;50.97;;;29.67;;
55290;SDS011;41155;39.768;2.712;2023-12-20T11:01:47;59.92;;;32.05;;
55290;SDS011;41155;39.768;2.712;2023-12-20T11:04:15;48.58;;;31.40;;
55290;SDS011;41155;39.768;2.712;2023-12-20T11:06:54;60.47;;;32.92;;
55290;SDS011;41155;39.768;2.712;2023-12-20T11:09:31;50.22;;;22.05;;
55290;SDS011;41155;39.768;2.712;2023-12-20T11:14:53;50.97;;;10.00;;
55290;SDS011;41155;39.768;2.712;2023-12-20T11:17:26;92.32;;;15.57;;
55290;SDS011;41155;39.768;2.712;2023-12-20T11:22:17;37.45;;;13.93;;
55290;SDS011;41155;39.768;2.712;2023-12-20T11:24:44;33.47;;;15.90;;
55290;SDS011;41155;39.768;2.712;2023-12-20T11:27:12;43.92;;;21.20;;
55290;SDS011;41155;39.768;2.712;2023-12-20T11:29:38;37.50;;;16.40;;
55290;SDS011;41155;39.768;2.712;2023-12-20T11:32:49;34.17;;;10.52;;
55290;SDS011;41155;39.768;2.712;2023-12-20T11:34:54;19.58;;;8.88;;
55290;SDS011;41155;39.768;2.712;2023-12-20T11:37:21;24.17;;;9.65;;
55290;SDS011;41155;39.768;2.712;2023-12-20T11:39:56;32.75;;;10.80;;
55290;SDS011;41155;39.768;2.712;2023-12-20T11:42:26;26.02;;;9.18;;
55290;SDS011;41155;39.768;2.712;2023-12-20T11:44:52;19.70;;;9.05;;
55290;SDS011;41155;39.768;2.712;2023-12-20T11:47:18;13.63;;;8.80;;
55290;SDS011;41155;39.768;2.712;2023-12-20T11:49:46;22.92;;;9.20;;
55290;SDS011;41155;39.768;2.712;2023-12-20T11:52:13;21.73;;;7.82;;
55290;SDS011;41155;39.768;2.712;2023-12-20T11:54:39;22.25;;;8.27;;
55290;SDS011;41155;39.768;2.712;2023-12-20T11:57:04;21.85;;;9.55;;
55290;SDS011;41155;39.768;2.712;2023-12-20T11:59:30;24.48;;;9.68;;
55290;SDS011;41155;39.768;2.712;2023-12-20T12:01:56;30.00;;;9.15;;
55290;SDS011;41155;39.768;2.712;2023-12-20T12:04:25;59.47;;;9.65;;
55290;SDS011;41155;39.768;2.712;2023-12-20T12:06:51;94.68;;;13.27;;
55290;SDS011;41155;39.768;2.712;2023-12-20T12:09:17;128.88;;;14.88;;
55290;SDS011;41155;39.768;2.712;2023-12-20T12:11:43;53.75;;;9.82;;
55290;SDS011;41155;39.768;2.712;2023-12-20T12:14:08;45.78;;;9.43;;
55290;SDS011;41155;39.768;2.712;2023-12-20T12:16:35;86.72;;;12.05;;
55290;SDS011;41155;39.768;2.712;2023-12-20T12:19:00;58.53;;;11.45;;
55290;SDS011;41155;39.768;2.712;2023-12-20T12:21:26;47.40;;;11.23;;
55290;SDS011;41155;39.768;2.712;2023-12-20T12:23:52;40.40;;;9.63;;
55290;SDS011;41155;39.768;2.712;2023-12-20T12:26:18;55.13;;;13.65;;
55290;SDS011;41155;39.768;2.712;2023-12-20T12:28:43;71.07;;;10.13;;
55290;SDS011;41155;39.768;2.712;2023-12-20T12:31:13;148.10;;;12.90;;
55290;SDS011;41155;39.768;2.712;2023-12-20T12:33:42;43.28;;;9.35;;
55290;SDS011;41155;39.768;2.712;2023-12-20T12:36:08;93.15;;;11.90;;
55290;SDS011;41155;39.768;2.712;2023-12-20T12:38:34;61.45;;;9.10;;
55290;SDS011;41155;39.768;2.712;2023-12-20T12:41:00;55.25;;;8.98;;
55290;SDS011;41155;39.768;2.712;2023-12-20T12:43:26;74.57;;;9.95;;
55290;SDS011;41155;39.768;2.712;2023-12-20T12:45:51;109.90;;;11.07;;
55290;SDS011;41155;39.768;2.712;2023-12-20T12:48:17;53.03;;;11.20;;
55290;SDS011;41155;39.768;2.712;2023-12-20T12:50:43;27.27;;;7.07;;
55290;SDS011;41155;39.768;2.712;2023-12-20T12:53:08;100.05;;;12.10;;
55290;SDS011;41155;39.768;2.712;2023-12-20T12:55:34;50.97;;;8.85;;
55290;SDS011;41155;39.768;2.712;2023-12-20T12:58:00;33.15;;;7.43;;
55290;SDS011;41155;39.768;2.712;2023-12-20T13:00:26;24.30;;;6.90;;
55290;SDS011;41155;39.768;2.712;2023-12-20T13:02:51;21.02;;;6.95;;
55290;SDS011;41155;39.768;2.712;2023-12-20T13:05:17;22.73;;;6.75;;
55290;SDS011;41155;39.768;2.712;2023-12-20T13:07:43;15.85;;;6.75;;
55290;SDS011;41155;39.768;2.712;2023-12-20T13:10:10;18.73;;;7.07;;
55290;SDS011;41155;39.768;2.712;2023-12-20T13:12:36;17.48;;;6.68;;
55290;SDS011;41155;39.768;2.712;2023-12-20T13:15:01;12.35;;;6.55;;
55290;SDS011;41155;39.768;2.712;2023-12-20T13:17:29;16.63;;;6.40;;
55290;SDS011;41155;39.768;2.712;2023-12-20T13:19:54;29.75;;;9.60;;
55290;SDS011;41155;39.768;2.712;2023-12-20T13:22:20;18.67;;;8.35;;
55290;SDS011;41155;39.768;2.712;2023-12-20T13:24:45;14.75;;;8.02;;
55290;SDS011;41155;39.768;2.712;2023-12-20T13:27:11;11.65;;;7.90;;
55290;SDS011;41155;39.768;2.712;2023-12-20T13:29:36;9.55;;;7.07;;
55290;SDS011;41155;39.768;2.712;2023-12-20T13:32:02;11.20;;;6.50;;
55290;SDS011;41155;39.768;2.712;2023-12-20T13:34:28;28.63;;;19.42;;
55290;SDS011;41155;39.768;2.712;2023-12-20T13:36:54;29.65;;;16.35;;
55290;SDS011;41155;39.768;2.712;2023-12-20T13:39:21;17.20;;;11.80;;
55290;SDS011;41155;39.768;2.712;2023-12-20T13:41:47;19.02;;;10.48;;
55290;SDS011;41155;39.768;2.712;2023-12-20T13:44:12;12.43;;;8.88;;
55290;SDS011;41155;39.768;2.712;2023-12-20T13:46:38;19.70;;;10.02;;
55290;SDS011;41155;39.768;2.712;2023-12-20T13:49:05;21.20;;;9.25;;
55290;SDS011;41155;39.768;2.712;2023-12-20T13:51:31;15.82;;;9.45;;
55290;SDS011;41155;39.768;2.712;2023-12-20T13:53:56;23.02;;;11.02;;
55290;SDS011;41155;39.768;2.712;2023-12-20T13:56:22;40.13;;;21.90;;
55290;SDS011;41155;39.768;2.712;2023-12-20T13:58:48;27.58;;;17.65;;
55290;SDS011;41155;39.768;2.712;2023-12-20T14:01:15;32.33;;;18.63;;
55290;SDS011;41155;39.768;2.712;2023-12-20T14:03:40;28.90;;;19.95;;
55290;SDS011;41155;39.768;2.712;2023-12-20T14:06:06;28.70;;;17.42;;
55290;SDS011;41155;39.768;2.712;2023-12-20T14:08:32;27.08;;;16.20;;
55290;SDS011;41155;39.768;2.712;2023-12-20T14:10:57;23.33;;;15.85;;
55290;SDS011;41155;39.768;2.712;2023-12-20T14:13:23;33.58;;;16.38;;
55290;SDS011;41155;39.768;2.712;2023-12-20T14:15:48;29.65;;;15.45;;
55290;SDS011;41155;39.768;2.712;2023-12-20T14:18:14;29.25;;;16.52;;
55290;SDS011;41155;39.768;2.712;2023-12-20T14:20:40;31.98;;;15.07;;
55290;SDS011;41155;39.768;2.712;2023-12-20T14:23:07;52.75;;;16.45;;